sensor_id;sensor_type;location;lat;lon;timestamp;P1;durP1;ratioP1;P2;durP2;ratioP2
15938;SDS011;8068;51.322;9.450;2023-10-19T00:02:06;9.40;;;8.40;;
15938;SDS011;8068;51.322;9.450;2023-10-19T00:04:34;8.97;;;7.77;;
15938;SDS011;8068;51.322;9.450;2023-10-19T00:07:03;10.73;;;9.10;;
15938;SDS011;8068;51.322;9.450;2023-10-19T00:09:34;10.23;;;8.37;;
15938;SDS011;8068;51.322;9.450;2023-10-19T00:12:04;10.17;;;8.77;;
15938;SDS011;8068;51.322;9.450;2023-10-19T00:14:35;9.43;;;8.43;;
15938;SDS011;8068;51.322;9.450;2023-10-19T00:17:02;11.03;;;8.50;;
15938;SDS011;8068;51.322;9.450;2023-10-19T00:19:38;9.30;;;8.50;;
15938;SDS011;8068;51.322;9.450;2023-10-19T00:22:24;9.57;;;8.57;;
15938;SDS011;8068;51.322;9.450;2023-10-19T00:24:52;12.10;;;9.20;;
15938;SDS011;8068;51.322;9.450;2023-10-19T00:27:18;10.73;;;9.40;;
15938;SDS011;8068;51.322;9.450;2023-10-19T00:29:48;9.53;;;8.53;;
15938;SDS011;8068;51.322;9.450;2023-10-19T00:32:16;10.47;;;8.67;;
15938;SDS011;8068;51.322;9.450;2023-10-19T00:34:45;10.70;;;9.50;;
15938;SDS011;8068;51.322;9.450;2023-10-19T00:37:19;9.30;;;8.50;;
15938;SDS011;8068;51.322;9.450;2023-10-19T00:39:53;11.23;;;8.70;;
15938;SDS011;8068;51.322;9.450;2023-10-19T00:42:22;9.47;;;8.57;;
15938;SDS011;8068;51.322;9.450;2023-10-19T00:44:58;14.50;;;10.00;;
15938;SDS011;8068;51.322;9.450;2023-10-19T00:47:31;13.33;;;8.93;;
15938;SDS011;8068;51.322;9.450;2023-10-19T00:50:07;9.77;;;8.87;;
15938;SDS011;8068;51.322;9.450;2023-10-19T00:52:43;15.60;;;9.30;;
15938;SDS011;8068;51.322;9.450;2023-10-19T00:55:16;9.00;;;8.10;;
15938;SDS011;8068;51.322;9.450;2023-10-19T00:57:45;12.03;;;8.20;;
15938;SDS011;8068;51.322;9.450;2023-10-19T01:00:15;9.57;;;8.60;;
15938;SDS011;8068;51.322;9.450;2023-10-19T01:02:57;11.30;;;9.60;;
15938;SDS011;8068;51.322;9.450;2023-10-19T01:05:31;9.13;;;8.33;;
15938;SDS011;8068;51.322;9.450;2023-10-19T01:08:07;9.37;;;8.43;;
15938;SDS011;8068;51.322;9.450;2023-10-19T01:10:51;11.40;;;8.87;;
15938;SDS011;8068;51.322;9.450;2023-10-19T01:13:19;11.40;;;9.27;;
15938;SDS011;8068;51.322;9.450;2023-10-19T01:16:04;9.73;;;8.83;;
15938;SDS011;8068;51.322;9.450;2023-10-19T01:18:31;9.33;;;8.47;;
15938;SDS011;8068;51.322;9.450;2023-10-19T01:20:59;9.40;;;8.47;;
15938;SDS011;8068;51.322;9.450;2023-10-19T01:23:31;8.20;;;7.50;;
15938;SDS011;8068;51.322;9.450;2023-10-19T01:25:58;12.17;;;9.33;;
15938;SDS011;8068;51.322;9.450;2023-10-19T01:28:27;10.43;;;8.30;;
15938;SDS011;8068;51.322;9.450;2023-10-19T01:31:09;9.00;;;8.20;;
15938;SDS011;8068;51.322;9.450;2023-10-19T01:33:43;11.93;;;9.07;;
15938;SDS011;8068;51.322;9.450;2023-10-19T01:36:11;11.50;;;8.70;;
15938;SDS011;8068;51.322;9.450;2023-10-19T01:38:51;9.80;;;8.80;;
15938;SDS011;8068;51.322;9.450;2023-10-19T01:41:23;9.37;;;8.63;;
15938;SDS011;8068;51.322;9.450;2023-10-19T01:43:51;9.13;;;8.33;;
15938;SDS011;8068;51.322;9.450;2023-10-19T01:46:23;9.83;;;8.93;;
15938;SDS011;8068;51.322;9.450;2023-10-19T01:49:03;11.00;;;9.43;;
15938;SDS011;8068;51.322;9.450;2023-10-19T01:51:33;9.90;;;8.97;;
15938;SDS011;8068;51.322;9.450;2023-10-19T01:54:05;12.13;;;9.33;;
15938;SDS011;8068;51.322;9.450;2023-10-19T01:56:34;9.60;;;8.80;;
15938;SDS011;8068;51.322;9.450;2023-10-19T01:59:05;14.80;;;9.90;;
15938;SDS011;8068;51.322;9.450;2023-10-19T02:01:34;12.43;;;10.13;;
15938;SDS011;8068;51.322;9.450;2023-10-19T02:04:04;11.00;;;9.90;;
15938;SDS011;8068;51.322;9.450;2023-10-19T02:06:33;10.83;;;9.60;;
15938;SDS011;8068;51.322;9.450;2023-10-19T02:09:07;11.20;;;10.20;;
15938;SDS011;8068;51.322;9.450;2023-10-19T02:11:57;12.43;;;10.47;;
15938;SDS011;8068;51.322;9.450;2023-10-19T02:14:25;15.47;;;11.37;;
15938;SDS011;8068;51.322;9.450;2023-10-19T02:16:54;12.67;;;11.47;;
15938;SDS011;8068;51.322;9.450;2023-10-19T02:19:30;13.33;;;11.10;;
15938;SDS011;8068;51.322;9.450;2023-10-19T02:21:58;11.50;;;10.30;;
15938;SDS011;8068;51.322;9.450;2023-10-19T02:24:30;11.17;;;10.17;;
15938;SDS011;8068;51.322;9.450;2023-10-19T02:26:57;14.53;;;12.00;;
15938;SDS011;8068;51.322;9.450;2023-10-19T02:29:24;13.83;;;11.73;;
15938;SDS011;8068;51.322;9.450;2023-10-19T02:31:54;15.10;;;11.73;;
15938;SDS011;8068;51.322;9.450;2023-10-19T02:34:23;12.30;;;11.00;;
15938;SDS011;8068;51.322;9.450;2023-10-19T02:36:50;12.77;;;11.50;;
15938;SDS011;8068;51.322;9.450;2023-10-19T02:39:17;13.20;;;11.50;;
15938;SDS011;8068;51.322;9.450;2023-10-19T02:41:45;15.73;;;12.27;;
15938;SDS011;8068;51.322;9.450;2023-10-19T02:44:17;12.37;;;11.20;;
15938;SDS011;8068;51.322;9.450;2023-10-19T02:46:45;16.10;;;11.93;;
15938;SDS011;8068;51.322;9.450;2023-10-19T02:49:13;12.73;;;11.43;;
15938;SDS011;8068;51.322;9.450;2023-10-19T02:51:46;13.00;;;11.23;;
15938;SDS011;8068;51.322;9.450;2023-10-19T02:54:14;13.73;;;12.07;;
15938;SDS011;8068;51.322;9.450;2023-10-19T02:56:50;11.80;;;10.60;;
15938;SDS011;8068;51.322;9.450;2023-10-19T02:59:26;10.00;;;9.10;;
15938;SDS011;8068;51.322;9.450;2023-10-19T03:01:59;12.50;;;11.03;;
15938;SDS011;8068;51.322;9.450;2023-10-19T03:04:39;12.27;;;11.03;;
15938;SDS011;8068;51.322;9.450;2023-10-19T03:07:08;12.50;;;10.90;;
15938;SDS011;8068;51.322;9.450;2023-10-19T03:09:36;11.73;;;10.63;;
15938;SDS011;8068;51.322;9.450;2023-10-19T03:12:03;11.97;;;10.83;;
15938;SDS011;8068;51.322;9.450;2023-10-19T03:14:32;11.83;;;10.73;;
15938;SDS011;8068;51.322;9.450;2023-10-19T03:17:00;11.00;;;9.97;;
15938;SDS011;8068;51.322;9.450;2023-10-19T03:19:27;11.20;;;10.00;;
15938;SDS011;8068;51.322;9.450;2023-10-19T03:21:54;11.67;;;10.57;;
15938;SDS011;8068;51.322;9.450;2023-10-19T03:24:27;10.47;;;9.50;;
15938;SDS011;8068;51.322;9.450;2023-10-19T03:27:04;12.70;;;10.77;;
15938;SDS011;8068;51.322;9.450;2023-10-19T03:29:50;11.57;;;10.37;;
15938;SDS011;8068;51.322;9.450;2023-10-19T03:32:22;13.50;;;11.30;;
15938;SDS011;8068;51.322;9.450;2023-10-19T03:34:56;12.27;;;11.07;;
15938;SDS011;8068;51.322;9.450;2023-10-19T03:37:24;12.33;;;10.30;;
15938;SDS011;8068;51.322;9.450;2023-10-19T03:39:52;10.23;;;9.40;;
15938;SDS011;8068;51.322;9.450;2023-10-19T03:42:23;12.83;;;10.10;;
15938;SDS011;8068;51.322;9.450;2023-10-19T03:44:56;10.20;;;9.20;;
15938;SDS011;8068;51.322;9.450;2023-10-19T03:47:24;11.00;;;10.00;;
15938;SDS011;8068;51.322;9.450;2023-10-19T03:50:01;13.67;;;11.50;;
15938;SDS011;8068;51.322;9.450;2023-10-19T03:52:36;11.73;;;10.73;;
15938;SDS011;8068;51.322;9.450;2023-10-19T03:55:06;11.90;;;10.70;;
15938;SDS011;8068;51.322;9.450;2023-10-19T03:57:46;12.17;;;11.07;;
15938;SDS011;8068;51.322;9.450;2023-10-19T04:00:17;12.00;;;10.83;;
15938;SDS011;8068;51.322;9.450;2023-10-19T04:02:51;11.77;;;10.67;;
15938;SDS011;8068;51.322;9.450;2023-10-19T04:05:20;12.97;;;11.67;;
15938;SDS011;8068;51.322;9.450;2023-10-19T04:07:49;11.50;;;10.40;;
15938;SDS011;8068;51.322;9.450;2023-10-19T04:10:24;10.57;;;9.67;;
15938;SDS011;8068;51.322;9.450;2023-10-19T04:13:05;9.70;;;8.90;;
15938;SDS011;8068;51.322;9.450;2023-10-19T04:15:40;11.00;;;10.00;;
15938;SDS011;8068;51.322;9.450;2023-10-19T04:18:08;10.20;;;9.20;;
15938;SDS011;8068;51.322;9.450;2023-10-19T04:20:36;10.53;;;9.63;;
15938;SDS011;8068;51.322;9.450;2023-10-19T04:23:19;11.47;;;10.47;;
15938;SDS011;8068;51.322;9.450;2023-10-19T04:25:48;9.73;;;8.87;;
15938;SDS011;8068;51.322;9.450;2023-10-19T04:28:15;10.80;;;9.93;;
15938;SDS011;8068;51.322;9.450;2023-10-19T04:30:42;11.53;;;10.40;;
15938;SDS011;8068;51.322;9.450;2023-10-19T04:33:09;11.30;;;10.20;;
15938;SDS011;8068;51.322;9.450;2023-10-19T04:35:37;10.33;;;9.43;;
15938;SDS011;8068;51.322;9.450;2023-10-19T04:38:04;11.63;;;10.53;;
15938;SDS011;8068;51.322;9.450;2023-10-19T04:40:33;9.60;;;8.80;;
15938;SDS011;8068;51.322;9.450;2023-10-19T04:43:01;10.53;;;9.60;;
15938;SDS011;8068;51.322;9.450;2023-10-19T04:45:30;11.70;;;10.50;;
15938;SDS011;8068;51.322;9.450;2023-10-19T04:47:57;10.60;;;9.63;;
15938;SDS011;8068;51.322;9.450;2023-10-19T04:50:24;11.47;;;10.27;;
15938;SDS011;8068;51.322;9.450;2023-10-19T04:52:51;10.80;;;9.70;;
15938;SDS011;8068;51.322;9.450;2023-10-19T04:55:18;11.47;;;10.30;;
15938;SDS011;8068;51.322;9.450;2023-10-19T04:57:45;10.43;;;9.53;;
15938;SDS011;8068;51.322;9.450;2023-10-19T05:00:12;12.20;;;11.00;;
15938;SDS011;8068;51.322;9.450;2023-10-19T05:02:41;10.67;;;9.83;;
15938;SDS011;8068;51.322;9.450;2023-10-19T05:05:09;12.17;;;10.90;;
15938;SDS011;8068;51.322;9.450;2023-10-19T05:07:37;11.97;;;10.70;;
15938;SDS011;8068;51.322;9.450;2023-10-19T05:10:05;11.10;;;10.30;;
15938;SDS011;8068;51.322;9.450;2023-10-19T05:12:32;12.80;;;10.77;;
15938;SDS011;8068;51.322;9.450;2023-10-19T05:14:59;18.03;;;11.37;;
15938;SDS011;8068;51.322;9.450;2023-10-19T05:17:26;12.20;;;10.60;;
15938;SDS011;8068;51.322;9.450;2023-10-19T05:19:54;12.37;;;10.27;;
15938;SDS011;8068;51.322;9.450;2023-10-19T05:22:23;12.30;;;11.03;;
15938;SDS011;8068;51.322;9.450;2023-10-19T05:24:52;13.30;;;11.20;;
15938;SDS011;8068;51.322;9.450;2023-10-19T05:27:19;13.50;;;10.10;;
15938;SDS011;8068;51.322;9.450;2023-10-19T05:29:47;12.30;;;10.23;;
15938;SDS011;8068;51.322;9.450;2023-10-19T05:32:14;12.00;;;10.80;;
15938;SDS011;8068;51.322;9.450;2023-10-19T05:34:41;12.47;;;10.67;;
15938;SDS011;8068;51.322;9.450;2023-10-19T05:37:08;16.43;;;11.60;;
15938;SDS011;8068;51.322;9.450;2023-10-19T05:39:36;12.33;;;11.13;;
15938;SDS011;8068;51.322;9.450;2023-10-19T05:42:03;12.30;;;11.27;;
15938;SDS011;8068;51.322;9.450;2023-10-19T05:44:31;11.57;;;10.40;;
15938;SDS011;8068;51.322;9.450;2023-10-19T05:46:59;12.63;;;11.40;;
15938;SDS011;8068;51.322;9.450;2023-10-19T05:49:27;13.80;;;10.23;;
15938;SDS011;8068;51.322;9.450;2023-10-19T05:51:56;10.90;;;10.00;;
15938;SDS011;8068;51.322;9.450;2023-10-19T05:54:23;12.00;;;10.90;;
15938;SDS011;8068;51.322;9.450;2023-10-19T05:56:51;11.83;;;10.73;;
15938;SDS011;8068;51.322;9.450;2023-10-19T05:59:21;13.30;;;11.97;;
15938;SDS011;8068;51.322;9.450;2023-10-19T06:01:50;11.73;;;10.50;;
15938;SDS011;8068;51.322;9.450;2023-10-19T06:04:18;12.50;;;11.10;;
15938;SDS011;8068;51.322;9.450;2023-10-19T06:06:47;11.67;;;10.60;;
15938;SDS011;8068;51.322;9.450;2023-10-19T06:09:15;11.60;;;10.40;;
15938;SDS011;8068;51.322;9.450;2023-10-19T06:11:44;11.33;;;10.37;;
15938;SDS011;8068;51.322;9.450;2023-10-19T06:14:12;10.80;;;9.77;;
15938;SDS011;8068;51.322;9.450;2023-10-19T06:16:39;13.10;;;11.40;;
15938;SDS011;8068;51.322;9.450;2023-10-19T06:19:07;11.37;;;10.27;;
15938;SDS011;8068;51.322;9.450;2023-10-19T06:21:34;11.10;;;9.90;;
15938;SDS011;8068;51.322;9.450;2023-10-19T06:24:01;12.50;;;11.17;;
15938;SDS011;8068;51.322;9.450;2023-10-19T06:26:29;14.73;;;10.67;;
15938;SDS011;8068;51.322;9.450;2023-10-19T06:28:56;10.87;;;9.77;;
15938;SDS011;8068;51.322;9.450;2023-10-19T06:31:26;13.20;;;10.33;;
15938;SDS011;8068;51.322;9.450;2023-10-19T06:33:53;10.57;;;9.23;;
15938;SDS011;8068;51.322;9.450;2023-10-19T06:36:20;10.50;;;9.50;;
15938;SDS011;8068;51.322;9.450;2023-10-19T06:38:47;10.20;;;9.30;;
15938;SDS011;8068;51.322;9.450;2023-10-19T06:41:17;10.90;;;9.80;;
15938;SDS011;8068;51.322;9.450;2023-10-19T06:43:45;9.70;;;8.90;;
15938;SDS011;8068;51.322;9.450;2023-10-19T06:46:12;12.93;;;9.20;;
15938;SDS011;8068;51.322;9.450;2023-10-19T06:48:39;11.57;;;10.30;;
15938;SDS011;8068;51.322;9.450;2023-10-19T06:51:06;12.23;;;10.30;;
15938;SDS011;8068;51.322;9.450;2023-10-19T06:53:33;11.10;;;10.07;;
15938;SDS011;8068;51.322;9.450;2023-10-19T06:56:00;11.20;;;9.63;;
15938;SDS011;8068;51.322;9.450;2023-10-19T06:58:34;14.03;;;10.67;;
15938;SDS011;8068;51.322;9.450;2023-10-19T07:01:01;10.63;;;9.47;;
15938;SDS011;8068;51.322;9.450;2023-10-19T07:03:41;11.37;;;9.10;;
15938;SDS011;8068;51.322;9.450;2023-10-19T07:06:14;11.73;;;10.43;;
15938;SDS011;8068;51.322;9.450;2023-10-19T07:08:46;10.40;;;9.40;;
15938;SDS011;8068;51.322;9.450;2023-10-19T07:11:18;10.83;;;9.73;;
15938;SDS011;8068;51.322;9.450;2023-10-19T07:13:47;14.90;;;10.80;;
15938;SDS011;8068;51.322;9.450;2023-10-19T07:16:14;15.03;;;10.70;;
15938;SDS011;8068;51.322;9.450;2023-10-19T07:18:41;21.63;;;12.93;;
15938;SDS011;8068;51.322;9.450;2023-10-19T07:21:08;16.37;;;10.63;;
15938;SDS011;8068;51.322;9.450;2023-10-19T07:23:36;16.40;;;10.53;;
15938;SDS011;8068;51.322;9.450;2023-10-19T07:26:07;17.33;;;12.70;;
15938;SDS011;8068;51.322;9.450;2023-10-19T07:28:34;29.80;;;14.27;;
15938;SDS011;8068;51.322;9.450;2023-10-19T07:31:05;23.33;;;13.10;;
15938;SDS011;8068;51.322;9.450;2023-10-19T07:33:39;37.40;;;15.40;;
15938;SDS011;8068;51.322;9.450;2023-10-19T07:36:18;30.33;;;16.23;;
15938;SDS011;8068;51.322;9.450;2023-10-19T07:38:51;37.33;;;15.17;;
15938;SDS011;8068;51.322;9.450;2023-10-19T07:41:23;29.37;;;15.00;;
15938;SDS011;8068;51.322;9.450;2023-10-19T07:43:55;53.93;;;16.83;;
15938;SDS011;8068;51.322;9.450;2023-10-19T07:46:29;34.63;;;16.67;;
15938;SDS011;8068;51.322;9.450;2023-10-19T07:49:01;38.80;;;16.40;;
15938;SDS011;8068;51.322;9.450;2023-10-19T07:51:32;37.63;;;17.10;;
15938;SDS011;8068;51.322;9.450;2023-10-19T07:54:06;33.27;;;15.70;;
15938;SDS011;8068;51.322;9.450;2023-10-19T07:56:37;28.93;;;14.17;;
15938;SDS011;8068;51.322;9.450;2023-10-19T07:59:08;35.77;;;16.00;;
15938;SDS011;8068;51.322;9.450;2023-10-19T08:01:39;33.50;;;16.23;;
15938;SDS011;8068;51.322;9.450;2023-10-19T08:04:10;35.30;;;16.93;;
15938;SDS011;8068;51.322;9.450;2023-10-19T08:06:40;39.80;;;17.90;;
15938;SDS011;8068;51.322;9.450;2023-10-19T08:09:11;36.67;;;18.17;;
15938;SDS011;8068;51.322;9.450;2023-10-19T08:11:47;39.20;;;18.40;;
15938;SDS011;8068;51.322;9.450;2023-10-19T08:14:17;30.40;;;16.20;;
15938;SDS011;8068;51.322;9.450;2023-10-19T08:16:48;32.60;;;15.93;;
15938;SDS011;8068;51.322;9.450;2023-10-19T08:19:22;36.27;;;15.00;;
15938;SDS011;8068;51.322;9.450;2023-10-19T08:21:53;31.57;;;16.30;;
15938;SDS011;8068;51.322;9.450;2023-10-19T08:24:24;28.90;;;15.00;;
15938;SDS011;8068;51.322;9.450;2023-10-19T08:26:55;22.27;;;13.00;;
15938;SDS011;8068;51.322;9.450;2023-10-19T08:29:26;23.80;;;13.00;;
15938;SDS011;8068;51.322;9.450;2023-10-19T08:31:56;17.93;;;11.80;;
15938;SDS011;8068;51.322;9.450;2023-10-19T08:34:27;22.07;;;12.50;;
15938;SDS011;8068;51.322;9.450;2023-10-19T08:37:05;21.20;;;13.13;;
15938;SDS011;8068;51.322;9.450;2023-10-19T08:39:35;16.13;;;10.67;;
15938;SDS011;8068;51.322;9.450;2023-10-19T08:42:06;20.80;;;11.83;;
15938;SDS011;8068;51.322;9.450;2023-10-19T08:44:41;19.33;;;11.10;;
15938;SDS011;8068;51.322;9.450;2023-10-19T08:47:11;17.83;;;11.87;;
15938;SDS011;8068;51.322;9.450;2023-10-19T08:49:42;19.00;;;13.20;;
15938;SDS011;8068;51.322;9.450;2023-10-19T08:52:13;20.20;;;12.70;;
15938;SDS011;8068;51.322;9.450;2023-10-19T08:54:44;18.63;;;12.70;;
15938;SDS011;8068;51.322;9.450;2023-10-19T08:57:15;21.57;;;12.13;;
15938;SDS011;8068;51.322;9.450;2023-10-19T08:59:46;17.63;;;11.90;;
15938;SDS011;8068;51.322;9.450;2023-10-19T09:02:21;16.20;;;11.93;;
15938;SDS011;8068;51.322;9.450;2023-10-19T09:04:52;16.20;;;10.93;;
15938;SDS011;8068;51.322;9.450;2023-10-19T09:07:23;18.60;;;12.30;;
15938;SDS011;8068;51.322;9.450;2023-10-19T09:09:56;16.53;;;10.80;;
15938;SDS011;8068;51.322;9.450;2023-10-19T09:12:27;15.73;;;10.93;;
15938;SDS011;8068;51.322;9.450;2023-10-19T09:14:58;20.10;;;11.60;;
15938;SDS011;8068;51.322;9.450;2023-10-19T09:17:29;20.53;;;11.17;;
15938;SDS011;8068;51.322;9.450;2023-10-19T09:19:59;14.80;;;10.90;;
15938;SDS011;8068;51.322;9.450;2023-10-19T09:22:34;14.40;;;11.37;;
15938;SDS011;8068;51.322;9.450;2023-10-19T09:25:03;20.63;;;12.30;;
15938;SDS011;8068;51.322;9.450;2023-10-19T09:27:42;15.30;;;11.10;;
15938;SDS011;8068;51.322;9.450;2023-10-19T09:30:13;17.93;;;12.80;;
15938;SDS011;8068;51.322;9.450;2023-10-19T09:32:48;17.07;;;11.90;;
15938;SDS011;8068;51.322;9.450;2023-10-19T09:35:22;14.17;;;10.60;;
15938;SDS011;8068;51.322;9.450;2023-10-19T09:37:54;13.70;;;10.97;;
15938;SDS011;8068;51.322;9.450;2023-10-19T09:40:24;16.37;;;11.10;;
15938;SDS011;8068;51.322;9.450;2023-10-19T09:43:04;15.40;;;10.50;;
15938;SDS011;8068;51.322;9.450;2023-10-19T09:45:34;15.93;;;11.40;;
15938;SDS011;8068;51.322;9.450;2023-10-19T09:48:05;17.97;;;11.70;;
15938;SDS011;8068;51.322;9.450;2023-10-19T09:50:42;23.53;;;11.83;;
15938;SDS011;8068;51.322;9.450;2023-10-19T09:53:12;15.40;;;11.57;;
15938;SDS011;8068;51.322;9.450;2023-10-19T09:55:44;19.47;;;11.80;;
15938;SDS011;8068;51.322;9.450;2023-10-19T09:58:19;16.73;;;11.57;;
15938;SDS011;8068;51.322;9.450;2023-10-19T10:00:49;15.37;;;11.10;;
15938;SDS011;8068;51.322;9.450;2023-10-19T10:06:16;23.90;;;13.90;;
15938;SDS011;8068;51.322;9.450;2023-10-19T10:08:47;19.60;;;12.10;;
15938;SDS011;8068;51.322;9.450;2023-10-19T10:11:24;16.10;;;12.13;;
15938;SDS011;8068;51.322;9.450;2023-10-19T10:14:01;24.63;;;13.57;;
15938;SDS011;8068;51.322;9.450;2023-10-19T10:16:59;22.33;;;14.10;;
15938;SDS011;8068;51.322;9.450;2023-10-19T10:19:33;24.07;;;13.60;;
15938;SDS011;8068;51.322;9.450;2023-10-19T10:22:09;27.63;;;13.57;;
15938;SDS011;8068;51.322;9.450;2023-10-19T10:24:48;27.47;;;16.73;;
15938;SDS011;8068;51.322;9.450;2023-10-19T10:27:27;30.70;;;16.30;;
15938;SDS011;8068;51.322;9.450;2023-10-19T10:30:04;26.80;;;15.67;;
15938;SDS011;8068;51.322;9.450;2023-10-19T10:32:43;29.47;;;14.63;;
15938;SDS011;8068;51.322;9.450;2023-10-19T10:38:13;25.57;;;16.37;;
15938;SDS011;8068;51.322;9.450;2023-10-19T10:40:47;23.30;;;14.57;;
15938;SDS011;8068;51.322;9.450;2023-10-19T10:43:30;21.27;;;14.00;;
15938;SDS011;8068;51.322;9.450;2023-10-19T10:46:05;23.40;;;14.03;;
15938;SDS011;8068;51.322;9.450;2023-10-19T10:48:32;33.97;;;15.13;;
15938;SDS011;8068;51.322;9.450;2023-10-19T10:51:14;31.93;;;16.03;;
15938;SDS011;8068;51.322;9.450;2023-10-19T10:53:51;27.33;;;15.23;;
15938;SDS011;8068;51.322;9.450;2023-10-19T10:56:22;24.63;;;15.50;;
15938;SDS011;8068;51.322;9.450;2023-10-19T10:58:56;19.13;;;13.53;;
15938;SDS011;8068;51.322;9.450;2023-10-19T11:01:30;18.40;;;12.90;;
15938;SDS011;8068;51.322;9.450;2023-10-19T11:04:06;18.70;;;13.40;;
15938;SDS011;8068;51.322;9.450;2023-10-19T11:06:49;22.37;;;14.40;;
15938;SDS011;8068;51.322;9.450;2023-10-19T11:09:18;21.73;;;13.37;;
15938;SDS011;8068;51.322;9.450;2023-10-19T11:11:45;24.27;;;13.87;;
15938;SDS011;8068;51.322;9.450;2023-10-19T11:14:18;19.23;;;14.40;;
15938;SDS011;8068;51.322;9.450;2023-10-19T11:16:51;20.97;;;14.07;;
15938;SDS011;8068;51.322;9.450;2023-10-19T11:19:18;22.40;;;13.70;;
15938;SDS011;8068;51.322;9.450;2023-10-19T11:21:52;19.03;;;12.87;;
15938;SDS011;8068;51.322;9.450;2023-10-19T11:24:30;20.03;;;13.07;;
15938;SDS011;8068;51.322;9.450;2023-10-19T11:27:05;20.27;;;12.93;;
15938;SDS011;8068;51.322;9.450;2023-10-19T11:29:53;24.70;;;13.40;;
15938;SDS011;8068;51.322;9.450;2023-10-19T11:32:35;19.27;;;13.10;;
15938;SDS011;8068;51.322;9.450;2023-10-19T11:35:12;22.97;;;14.93;;
15938;SDS011;8068;51.322;9.450;2023-10-19T11:37:51;23.30;;;15.03;;
15938;SDS011;8068;51.322;9.450;2023-10-19T11:40:27;23.63;;;14.60;;
15938;SDS011;8068;51.322;9.450;2023-10-19T11:42:59;18.37;;;13.80;;
15938;SDS011;8068;51.322;9.450;2023-10-19T11:45:33;20.00;;;14.13;;
15938;SDS011;8068;51.322;9.450;2023-10-19T11:48:07;20.20;;;14.80;;
15938;SDS011;8068;51.322;9.450;2023-10-19T11:50:39;24.43;;;15.20;;
15938;SDS011;8068;51.322;9.450;2023-10-19T11:53:12;18.83;;;13.10;;
15938;SDS011;8068;51.322;9.450;2023-10-19T11:55:44;21.87;;;13.93;;
15938;SDS011;8068;51.322;9.450;2023-10-19T11:58:17;20.17;;;14.97;;
15938;SDS011;8068;51.322;9.450;2023-10-19T12:00:50;22.17;;;14.70;;
15938;SDS011;8068;51.322;9.450;2023-10-19T12:03:23;17.93;;;12.83;;
15938;SDS011;8068;51.322;9.450;2023-10-19T12:05:58;21.07;;;13.33;;
15938;SDS011;8068;51.322;9.450;2023-10-19T12:08:30;15.40;;;11.67;;
15938;SDS011;8068;51.322;9.450;2023-10-19T12:11:02;15.23;;;12.60;;
15938;SDS011;8068;51.322;9.450;2023-10-19T12:13:40;16.53;;;12.03;;
15938;SDS011;8068;51.322;9.450;2023-10-19T12:16:15;20.90;;;13.53;;
15938;SDS011;8068;51.322;9.450;2023-10-19T12:18:48;20.63;;;11.77;;
15938;SDS011;8068;51.322;9.450;2023-10-19T12:21:22;14.07;;;12.57;;
15938;SDS011;8068;51.322;9.450;2023-10-19T12:23:54;16.23;;;12.70;;
15938;SDS011;8068;51.322;9.450;2023-10-19T12:26:24;17.60;;;11.60;;
15938;SDS011;8068;51.322;9.450;2023-10-19T12:29:02;13.50;;;10.73;;
15938;SDS011;8068;51.322;9.450;2023-10-19T12:31:33;11.53;;;10.33;;
15938;SDS011;8068;51.322;9.450;2023-10-19T12:34:05;20.73;;;11.43;;
15938;SDS011;8068;51.322;9.450;2023-10-19T12:36:43;14.60;;;10.70;;
15938;SDS011;8068;51.322;9.450;2023-10-19T12:39:14;12.83;;;10.13;;
15938;SDS011;8068;51.322;9.450;2023-10-19T12:42:03;12.30;;;10.63;;
15938;SDS011;8068;51.322;9.450;2023-10-19T12:44:33;11.17;;;10.03;;
15938;SDS011;8068;51.322;9.450;2023-10-19T12:47:06;18.50;;;10.77;;
15938;SDS011;8068;51.322;9.450;2023-10-19T12:49:37;10.37;;;9.37;;
15938;SDS011;8068;51.322;9.450;2023-10-19T12:52:06;13.50;;;9.40;;
15938;SDS011;8068;51.322;9.450;2023-10-19T12:54:37;10.50;;;9.23;;
15938;SDS011;8068;51.322;9.450;2023-10-19T12:57:08;11.10;;;9.10;;
15938;SDS011;8068;51.322;9.450;2023-10-19T12:59:41;14.20;;;9.90;;
15938;SDS011;8068;51.322;9.450;2023-10-19T13:02:13;12.87;;;9.13;;
15938;SDS011;8068;51.322;9.450;2023-10-19T13:04:43;11.70;;;9.77;;
15938;SDS011;8068;51.322;9.450;2023-10-19T13:07:14;12.57;;;9.27;;
15938;SDS011;8068;51.322;9.450;2023-10-19T13:09:46;10.33;;;8.90;;
15938;SDS011;8068;51.322;9.450;2023-10-19T13:12:18;12.20;;;9.47;;
15938;SDS011;8068;51.322;9.450;2023-10-19T13:14:50;11.90;;;9.00;;
15938;SDS011;8068;51.322;9.450;2023-10-19T13:17:25;12.63;;;9.60;;
15938;SDS011;8068;51.322;9.450;2023-10-19T13:19:56;14.33;;;9.40;;
15938;SDS011;8068;51.322;9.450;2023-10-19T13:22:27;11.60;;;9.70;;
15938;SDS011;8068;51.322;9.450;2023-10-19T13:25:06;16.07;;;10.23;;
15938;SDS011;8068;51.322;9.450;2023-10-19T13:27:37;15.67;;;10.00;;
15938;SDS011;8068;51.322;9.450;2023-10-19T13:30:09;17.00;;;11.70;;
15938;SDS011;8068;51.322;9.450;2023-10-19T13:32:49;12.90;;;10.33;;
15938;SDS011;8068;51.322;9.450;2023-10-19T13:35:20;13.80;;;10.00;;
15938;SDS011;8068;51.322;9.450;2023-10-19T13:37:51;11.53;;;8.93;;
15938;SDS011;8068;51.322;9.450;2023-10-19T13:40:29;11.60;;;9.20;;
15938;SDS011;8068;51.322;9.450;2023-10-19T13:43:00;10.73;;;9.23;;
15938;SDS011;8068;51.322;9.450;2023-10-19T13:45:35;10.00;;;8.60;;
15938;SDS011;8068;51.322;9.450;2023-10-19T13:48:13;11.90;;;9.40;;
15938;SDS011;8068;51.322;9.450;2023-10-19T13:50:46;9.63;;;8.50;;
15938;SDS011;8068;51.322;9.450;2023-10-19T13:53:19;12.30;;;7.63;;
15938;SDS011;8068;51.322;9.450;2023-10-19T13:55:54;14.73;;;8.23;;
15938;SDS011;8068;51.322;9.450;2023-10-19T13:58:24;9.03;;;8.20;;
15938;SDS011;8068;51.322;9.450;2023-10-19T14:00:55;8.97;;;8.10;;
15938;SDS011;8068;51.322;9.450;2023-10-19T14:03:29;14.73;;;8.63;;
15938;SDS011;8068;51.322;9.450;2023-10-19T14:06:01;8.67;;;7.77;;
15938;SDS011;8068;51.322;9.450;2023-10-19T14:08:32;8.17;;;6.70;;
15938;SDS011;8068;51.322;9.450;2023-10-19T14:11:03;9.43;;;7.33;;
15938;SDS011;8068;51.322;9.450;2023-10-19T14:13:34;8.40;;;7.30;;
15938;SDS011;8068;51.322;9.450;2023-10-19T14:16:08;7.33;;;6.63;;
15938;SDS011;8068;51.322;9.450;2023-10-19T14:18:36;9.43;;;6.83;;
15938;SDS011;8068;51.322;9.450;2023-10-19T14:21:16;9.57;;;6.80;;
15938;SDS011;8068;51.322;9.450;2023-10-19T14:23:43;10.87;;;7.10;;
15938;SDS011;8068;51.322;9.450;2023-10-19T14:26:14;10.90;;;7.20;;
15938;SDS011;8068;51.322;9.450;2023-10-19T14:28:46;7.93;;;7.00;;
15938;SDS011;8068;51.322;9.450;2023-10-19T14:31:17;10.87;;;6.90;;
15938;SDS011;8068;51.322;9.450;2023-10-19T14:33:48;8.47;;;6.50;;
15938;SDS011;8068;51.322;9.450;2023-10-19T14:36:15;11.10;;;6.47;;
15938;SDS011;8068;51.322;9.450;2023-10-19T14:38:49;10.73;;;6.40;;
15938;SDS011;8068;51.322;9.450;2023-10-19T14:41:20;6.70;;;5.93;;
15938;SDS011;8068;51.322;9.450;2023-10-19T14:43:50;12.60;;;6.80;;
15938;SDS011;8068;51.322;9.450;2023-10-19T14:46:25;12.50;;;5.80;;
15938;SDS011;8068;51.322;9.450;2023-10-19T14:48:56;8.23;;;5.80;;
15938;SDS011;8068;51.322;9.450;2023-10-19T14:51:27;8.60;;;6.00;;
15938;SDS011;8068;51.322;9.450;2023-10-19T14:53:58;15.50;;;7.33;;
15938;SDS011;8068;51.322;9.450;2023-10-19T14:56:28;11.70;;;7.00;;
15938;SDS011;8068;51.322;9.450;2023-10-19T14:58:59;10.83;;;7.10;;
15938;SDS011;8068;51.322;9.450;2023-10-19T15:01:30;9.73;;;6.57;;
15938;SDS011;8068;51.322;9.450;2023-10-19T15:04:05;10.50;;;7.90;;
15938;SDS011;8068;51.322;9.450;2023-10-19T15:06:36;11.67;;;6.90;;
15938;SDS011;8068;51.322;9.450;2023-10-19T15:09:07;9.73;;;7.20;;
15938;SDS011;8068;51.322;9.450;2023-10-19T15:11:49;7.50;;;6.80;;
15938;SDS011;8068;51.322;9.450;2023-10-19T15:14:16;8.60;;;6.93;;